createdAt,value
2022-08-04T00:00:18.240Z,28.90
2022-08-04T00:03:00.146Z,28.90
2022-08-04T00:05:41.907Z,28.80
2022-08-04T00:08:20.542Z,28.80
2022-08-04T00:10:51.586Z,28.80
2022-08-04T00:13:24.069Z,28.80
2022-08-04T00:16:00.965Z,28.80
2022-08-04T00:18:40.273Z,28.80
2022-08-04T00:21:11.261Z,28.70
2022-08-04T00:24:12.049Z,28.70
2022-08-04T00:26:38.104Z,28.70
2022-08-04T00:29:07.176Z,28.70
2022-08-04T00:31:54.797Z,28.70
2022-08-04T00:34:27.345Z,28.70
2022-08-04T00:36:59.385Z,28.70
2022-08-04T00:39:30.965Z,28.70
2022-08-04T00:42:34.283Z,28.70
2022-08-04T00:45:23.833Z,28.70
2022-08-04T00:48:05.311Z,28.70
2022-08-04T00:50:44.759Z,28.70
2022-08-04T00:53:24.909Z,28.60
2022-08-04T00:56:23.209Z,28.60
2022-08-04T00:59:12.191Z,28.60
2022-08-04T01:01:52.652Z,28.50
2022-08-04T01:04:30.607Z,28.60
2022-08-04T01:07:20.714Z,28.60
2022-08-04T01:10:05.263Z,28.60
2022-08-04T01:13:08.233Z,28.60
2022-08-04T01:16:00.684Z,28.60
2022-08-04T01:18:35.320Z,28.60
2022-08-04T01:21:38.048Z,28.60
2022-08-04T01:24:29.375Z,28.60
2022-08-04T01:27:05.611Z,28.50
2022-08-04T01:29:47.035Z,28.50
2022-08-04T01:32:25.604Z,28.50
2022-08-04T01:35:10.763Z,28.50
2022-08-04T01:37:50.750Z,28.40
2022-08-04T01:40:18.960Z,28.40
2022-08-04T01:42:50.712Z,28.40
2022-08-04T01:45:20.019Z,28.40
2022-08-04T01:47:51.709Z,28.40
2022-08-04T01:50:19.973Z,28.40
2022-08-04T01:52:51.176Z,28.40
2022-08-04T01:55:19.562Z,28.30
2022-08-04T01:57:49.147Z,28.30
2022-08-04T02:00:20.851Z,28.30
2022-08-04T02:02:50.997Z,28.30
2022-08-04T02:05:20.736Z,28.30
2022-08-04T02:08:23.216Z,28.20
2022-08-04T02:11:07.487Z,28.20
2022-08-04T02:13:51.355Z,28.20
2022-08-04T02:16:35.992Z,28.20
2022-08-04T02:19:14.813Z,28.20
2022-08-04T02:21:45.442Z,28.20
2022-08-04T02:24:17.404Z,28.20
2022-08-04T02:26:50.537Z,28.20
2022-08-04T02:29:23.212Z,28.10
2022-08-04T02:32:05.587Z,28.20
2022-08-04T02:34:39.724Z,28.10
2022-08-04T02:37:09.202Z,28.10
2022-08-04T02:39:48.989Z,28.10
2022-08-04T02:42:18.283Z,28.00
2022-08-04T02:44:58.536Z,28.00
2022-08-04T02:48:08.289Z,28.30
2022-08-04T02:50:28.173Z,28.00
2022-08-04T02:52:59.238Z,28.00
2022-08-04T02:55:29.967Z,27.90
2022-08-04T02:57:59.828Z,27.90
2022-08-04T03:00:28.644Z,27.90
2022-08-04T03:03:12.962Z,27.90
2022-08-04T03:06:01.232Z,27.90
2022-08-04T03:08:55.902Z,27.90
2022-08-04T03:12:12.779Z,27.80
2022-08-04T03:15:32.524Z,27.80
2022-08-04T03:18:31.230Z,27.80
2022-08-04T03:21:37.206Z,27.70
2022-08-04T03:24:37.875Z,27.70
2022-08-04T03:27:44.871Z,27.70
2022-08-04T03:30:18.899Z,27.70
2022-08-04T03:33:25.591Z,27.60
2022-08-04T03:36:39.214Z,27.60
2022-08-04T03:39:51.166Z,27.60
2022-08-04T03:42:45.552Z,27.50
2022-08-04T03:45:47.160Z,27.50
2022-08-04T03:48:43.011Z,27.50
2022-08-04T03:51:38.554Z,27.50
2022-08-04T03:54:44.646Z,27.50
2022-08-04T03:57:30.502Z,27.40
2022-08-04T04:00:09.133Z,27.40
2022-08-04T04:03:09.516Z,27.40
2022-08-04T04:06:35.333Z,27.40
2022-08-04T04:09:57.498Z,27.40
2022-08-04T04:12:58.343Z,27.40
2022-08-04T04:16:12.556Z,27.40
2022-08-04T04:18:53.504Z,27.30
2022-08-04T04:21:50.865Z,27.30
2022-08-04T04:24:57.392Z,27.30
2022-08-04T04:27:41.159Z,27.10
2022-08-04T04:30:13.442Z,27.10
2022-08-04T04:33:07.775Z,27.00
2022-08-04T04:35:42.413Z,26.90
2022-08-04T04:38:45.894Z,26.90
2022-08-04T04:41:31.774Z,26.90
2022-08-04T04:44:30.905Z,26.90
2022-08-04T04:47:08.384Z,26.80
2022-08-04T04:49:49.596Z,26.90
2022-08-04T04:52:27.612Z,26.90
2022-08-04T04:55:03.719Z,26.90
2022-08-04T04:57:54.627Z,26.80
2022-08-04T05:00:24.852Z,26.80
2022-08-04T05:03:20.190Z,26.90
2022-08-04T05:06:11.556Z,26.90
2022-08-04T05:08:54.783Z,26.80
2022-08-04T05:12:00.022Z,26.80
2022-08-04T05:14:41.510Z,26.90
2022-08-04T05:17:20.074Z,26.90
2022-08-04T05:19:59.374Z,27.00
2022-08-04T05:22:32.698Z,27.00
2022-08-04T05:25:29.501Z,26.90
2022-08-04T05:28:06.252Z,27.10
2022-08-04T05:30:48.190Z,27.10
2022-08-04T05:33:19.969Z,27.20
2022-08-04T05:36:20.791Z,27.20
2022-08-04T05:38:44.847Z,27.20
2022-08-04T05:41:16.193Z,27.20
2022-08-04T05:43:48.557Z,27.20
2022-08-04T05:46:28.387Z,27.30
2022-08-04T05:48:56.725Z,27.30
2022-08-04T05:51:27.715Z,27.30
2022-08-04T05:53:56.738Z,27.30
2022-08-04T05:56:25.686Z,27.40
2022-08-04T05:58:55.341Z,27.40
2022-08-04T06:01:29.274Z,27.40
2022-08-04T06:03:59.799Z,27.40
2022-08-04T06:06:28.789Z,27.40
2022-08-04T06:08:57.396Z,27.50
2022-08-04T06:11:31.123Z,27.50
2022-08-04T06:14:24.766Z,27.60
2022-08-04T06:16:56.920Z,27.60
2022-08-04T06:20:01.199Z,27.70
2022-08-04T06:22:19.612Z,27.80
2022-08-04T06:24:50.101Z,27.80
2022-08-04T06:27:28.241Z,27.90
2022-08-04T06:30:03.138Z,27.90
2022-08-04T06:32:41.946Z,27.90
2022-08-04T06:35:12.942Z,28.00
2022-08-04T06:37:44.148Z,28.00
2022-08-04T06:40:31.735Z,28.00
2022-08-04T06:43:02.260Z,28.10
2022-08-04T06:45:35.296Z,28.20
2022-08-04T06:48:05.918Z,28.20
2022-08-04T06:51:27.333Z,28.30
2022-08-04T06:53:27.462Z,28.30
2022-08-04T06:56:02.672Z,28.30
2022-08-04T06:58:34.592Z,28.30
2022-08-04T07:01:06.317Z,28.40
2022-08-04T07:03:35.973Z,28.50
2022-08-04T07:06:14.783Z,28.60
2022-08-04T07:08:43.536Z,28.60
2022-08-04T07:11:12.827Z,28.60
2022-08-04T07:13:45.206Z,28.70
2022-08-04T07:16:15.669Z,28.80
2022-08-04T07:18:50.644Z,28.80
2022-08-04T07:21:23.274Z,28.90
2022-08-04T07:23:51.607Z,28.90
2022-08-04T07:26:19.832Z,29.00
2022-08-04T07:28:53.546Z,29.00
2022-08-04T07:31:33.242Z,29.10
2022-08-04T07:34:17.155Z,29.10
2022-08-04T07:36:50.328Z,29.20
2022-08-04T07:39:27.484Z,29.10
2022-08-04T07:41:58.520Z,29.10
2022-08-04T07:44:26.821Z,29.20
2022-08-04T07:46:55.176Z,29.20
2022-08-04T07:49:54.428Z,29.30
2022-08-04T07:52:16.442Z,29.30
2022-08-04T07:54:44.707Z,29.20
2022-08-04T07:57:19.699Z,29.40
2022-08-04T08:00:00.619Z,29.40
2022-08-04T08:02:29.375Z,29.50
2022-08-04T08:04:59.514Z,29.70
2022-08-04T08:07:27.649Z,29.50
2022-08-04T08:09:55.678Z,29.50
2022-08-04T08:12:38.002Z,29.60
2022-08-04T08:15:15.777Z,29.60
2022-08-04T08:17:59.327Z,29.70
2022-08-04T08:20:31.171Z,29.70
2022-08-04T08:23:00.228Z,29.70
2022-08-04T08:25:28.372Z,29.80
2022-08-04T08:27:56.847Z,30.00
2022-08-04T08:30:31.779Z,30.20
2022-08-04T08:33:05.766Z,30.10
2022-08-04T08:35:53.184Z,30.10
2022-08-04T08:38:34.395Z,30.20
2022-08-04T08:41:24.567Z,30.20
2022-08-04T08:44:19.128Z,30.10
2022-08-04T08:47:09.871Z,30.20
2022-08-04T08:50:04.475Z,30.40
2022-08-04T08:53:00.604Z,30.50
2022-08-04T08:55:41.674Z,30.50
2022-08-04T08:58:32.546Z,30.70
2022-08-04T09:01:11.114Z,30.90
2022-08-04T09:04:08.131Z,31.00
2022-08-04T09:06:57.807Z,30.90
2022-08-04T09:10:05.372Z,31.00
2022-08-04T09:12:50.884Z,31.10
2022-08-04T09:15:25.407Z,31.10
2022-08-04T09:18:00.088Z,31.10
2022-08-04T09:20:32.507Z,31.00
2022-08-04T09:23:16.967Z,31.10
2022-08-04T09:25:52.457Z,31.20
2022-08-04T09:28:50.816Z,31.30
2022-08-04T09:31:18.115Z,31.50
2022-08-04T09:33:55.168Z,31.50
2022-08-04T09:36:35.761Z,31.60
2022-08-04T09:39:10.572Z,31.70
2022-08-04T09:41:49.582Z,31.70
2022-08-04T09:44:51.293Z,31.80
2022-08-04T09:47:39.392Z,31.90
2022-08-04T09:50:27.352Z,32.00
2022-08-04T09:53:04.461Z,32.10
2022-08-04T09:55:53.873Z,32.20
2022-08-04T09:58:42.382Z,32.30
2022-08-04T10:01:25.262Z,32.10
2022-08-04T10:03:57.230Z,32.30
2022-08-04T10:06:42.955Z,32.40
2022-08-04T10:09:39.450Z,32.30
2022-08-04T10:12:21.535Z,32.40
2022-08-04T10:14:56.253Z,32.60
2022-08-04T10:17:52.800Z,32.60
2022-08-04T10:20:44.793Z,32.70
2022-08-04T10:23:24.185Z,32.60
2022-08-04T10:26:08.318Z,32.60
2022-08-04T10:28:48.476Z,32.70
2022-08-04T10:31:23.734Z,32.80
2022-08-04T10:34:01.469Z,32.80
2022-08-04T10:36:37.107Z,32.80
2022-08-04T10:39:43.724Z,32.90
2022-08-04T10:42:13.657Z,33.00
2022-08-04T10:44:57.675Z,33.00
2022-08-04T10:47:33.055Z,33.20
2022-08-04T10:50:05.087Z,33.20
2022-08-04T10:52:43.865Z,33.30
2022-08-04T10:55:18.323Z,33.40
2022-08-04T10:57:51.988Z,33.50
2022-08-04T11:00:24.032Z,33.50
2022-08-04T11:02:57.091Z,33.50
2022-08-04T11:05:34.883Z,33.50
2022-08-04T11:08:21.876Z,33.40
2022-08-04T11:11:01.573Z,33.50
2022-08-04T11:13:35.855Z,33.70
2022-08-04T11:16:09.850Z,33.80
2022-08-04T11:18:47.376Z,33.80
2022-08-04T11:21:21.712Z,33.80
2022-08-04T11:24:03.080Z,33.90
2022-08-04T11:26:41.424Z,33.80
2022-08-04T11:29:23.446Z,33.80
2022-08-04T11:31:57.292Z,33.80
2022-08-04T11:34:29.031Z,33.80
2022-08-04T11:37:06.194Z,33.90
2022-08-04T11:39:47.036Z,34.00
2022-08-04T11:42:22.842Z,33.80
2022-08-04T11:44:55.726Z,33.60
2022-08-04T11:47:33.348Z,33.50
2022-08-04T11:50:08.717Z,33.60
2022-08-04T11:52:42.990Z,33.80
2022-08-04T11:55:14.578Z,33.70
2022-08-04T11:57:42.916Z,33.70
2022-08-04T12:00:14.679Z,33.70
2022-08-04T12:03:16.408Z,33.70
2022-08-04T12:05:53.487Z,33.70
2022-08-04T12:08:36.912Z,33.60
2022-08-04T12:11:13.697Z,33.80
2022-08-04T12:13:49.963Z,33.70
2022-08-04T12:16:24.326Z,33.80
2022-08-04T12:19:03.171Z,33.70
2022-08-04T12:21:38.110Z,33.80
2022-08-04T12:24:16.326Z,33.60
2022-08-04T12:26:52.250Z,33.40
2022-08-04T12:29:23.458Z,33.40
2022-08-04T12:31:56.313Z,33.30
2022-08-04T12:34:33.030Z,33.20
2022-08-04T12:37:20.520Z,33.20
2022-08-04T12:40:27.940Z,33.10
2022-08-04T12:42:56.278Z,33.00
2022-08-04T12:45:31.048Z,33.00
2022-08-04T12:48:01.359Z,32.90
2022-08-04T12:50:36.395Z,32.60
2022-08-04T12:53:19.338Z,32.50
2022-08-04T12:56:02.750Z,32.70
2022-08-04T12:58:41.826Z,32.70
2022-08-04T13:02:09.475Z,32.90
2022-08-04T13:04:04.254Z,33.00
2022-08-04T13:06:35.379Z,33.10
2022-08-04T13:09:09.489Z,33.30
2022-08-04T13:11:44.603Z,33.30
2022-08-04T13:14:26.626Z,33.10
2022-08-04T13:16:59.309Z,32.90
2022-08-04T13:19:28.885Z,32.70
2022-08-04T13:22:08.201Z,32.60
2022-08-04T13:24:56.798Z,32.50
2022-08-04T13:27:28.090Z,32.30
2022-08-04T13:30:23.095Z,32.20
2022-08-04T13:32:56.404Z,32.30
2022-08-04T13:35:54.344Z,32.40
2022-08-04T13:38:18.800Z,32.40
2022-08-04T13:40:47.710Z,32.50
2022-08-04T13:44:15.840Z,32.60
2022-08-04T13:46:27.927Z,32.60
2022-08-04T13:49:25.806Z,32.70
2022-08-04T13:51:57.435Z,32.50
2022-08-04T13:54:30.674Z,32.40
2022-08-04T13:57:01.474Z,32.70
2022-08-04T13:59:37.613Z,32.40
2022-08-04T14:02:08.255Z,32.40
2022-08-04T14:04:42.532Z,32.50
2022-08-04T14:07:21.184Z,32.60
2022-08-04T14:10:03.491Z,32.30
2022-08-04T14:12:38.972Z,32.50
2022-08-04T14:16:02.307Z,32.40
2022-08-04T14:18:30.331Z,32.50
2022-08-04T14:21:09.441Z,32.70
2022-08-04T14:23:48.163Z,32.50
2022-08-04T14:26:18.886Z,32.60
2022-08-04T14:29:01.260Z,32.10
2022-08-04T14:31:46.678Z,32.10
2022-08-04T14:34:28.294Z,31.80
2022-08-04T14:37:13.947Z,32.10
2022-08-04T14:40:08.134Z,32.10
2022-08-04T14:42:55.474Z,32.10
2022-08-04T14:45:34.998Z,32.30
2022-08-04T14:48:08.714Z,32.40
2022-08-04T14:50:39.824Z,32.50
2022-08-04T14:53:16.040Z,32.60
2022-08-04T14:55:47.004Z,32.50
2022-08-04T14:58:33.867Z,32.50
2022-08-04T15:01:10.264Z,32.50
2022-08-04T15:03:49.772Z,32.60
2022-08-04T15:06:22.846Z,32.50
2022-08-04T15:08:52.619Z,32.40
2022-08-04T15:11:24.310Z,32.30
2022-08-04T15:13:52.718Z,32.30
2022-08-04T15:16:23.848Z,32.40
2022-08-04T15:19:03.324Z,32.40
2022-08-04T15:21:31.428Z,32.50
2022-08-04T15:24:02.518Z,32.50
2022-08-04T15:26:38.072Z,32.50
2022-08-04T15:29:16.893Z,32.30
2022-08-04T15:32:07.375Z,32.50
2022-08-04T15:34:48.683Z,32.30
2022-08-04T15:37:22.956Z,32.40
2022-08-04T15:39:59.514Z,32.40
2022-08-04T15:42:36.729Z,32.40
2022-08-04T15:45:22.239Z,32.40
2022-08-04T15:48:28.917Z,32.40
2022-08-04T15:51:05.265Z,32.30
2022-08-04T15:54:01.381Z,32.20
2022-08-04T15:56:48.277Z,32.10
2022-08-04T16:00:01.491Z,32.10
2022-08-04T16:02:50.622Z,32.00
2022-08-04T16:05:41.306Z,32.10
2022-08-04T16:08:19.564Z,32.10
2022-08-04T16:10:51.367Z,32.10
2022-08-04T16:13:21.846Z,32.20
2022-08-04T16:15:55.271Z,32.10
2022-08-04T16:18:39.500Z,31.30
2022-08-04T16:21:18.598Z,31.30
2022-08-04T16:24:11.205Z,31.20
2022-08-04T16:26:54.565Z,31.20
2022-08-04T16:29:35.213Z,31.10
2022-08-04T16:32:19.526Z,31.00
2022-08-04T16:34:57.869Z,30.80
2022-08-04T16:37:32.066Z,30.80
2022-08-04T16:40:33.667Z,30.80
2022-08-04T16:43:07.177Z,30.60
2022-08-04T16:45:46.801Z,30.60
2022-08-04T16:48:17.909Z,30.40
2022-08-04T16:51:05.162Z,30.30
2022-08-04T16:53:53.619Z,30.60
2022-08-04T16:56:33.101Z,30.60
2022-08-04T16:59:08.131Z,30.60
2022-08-04T17:01:36.835Z,30.70
2022-08-04T17:04:06.586Z,30.60
2022-08-04T17:06:36.711Z,30.50
2022-08-04T17:09:09.418Z,30.40
2022-08-04T17:11:41.245Z,30.40
2022-08-04T17:14:09.681Z,30.20
2022-08-04T17:16:39.409Z,30.10
2022-08-04T17:19:24.422Z,30.10
2022-08-04T17:22:02.222Z,30.30
2022-08-04T17:24:31.335Z,30.10
2022-08-04T17:27:00.973Z,30.30
2022-08-04T17:29:43.092Z,30.40
2022-08-04T17:32:17.957Z,30.60
2022-08-04T17:34:49.189Z,30.70
2022-08-04T17:37:39.562Z,30.80
2022-08-04T17:40:13.995Z,30.80
2022-08-04T17:42:45.218Z,31.00
2022-08-04T17:45:49.357Z,30.90
2022-08-04T17:48:11.805Z,30.90
2022-08-04T17:50:53.179Z,31.00
2022-08-04T17:54:01.563Z,31.20
2022-08-04T17:56:36.459Z,31.10
2022-08-04T17:59:55.392Z,30.80
2022-08-04T18:02:14.203Z,30.90
2022-08-04T18:05:07.534Z,30.80
2022-08-04T18:08:38.570Z,30.50
2022-08-04T18:10:54.700Z,30.50
2022-08-04T18:13:25.946Z,30.60
2022-08-04T18:16:03.969Z,30.80
2022-08-04T18:18:38.435Z,30.80
2022-08-04T18:21:06.809Z,30.50
2022-08-04T18:23:34.807Z,30.70
2022-08-04T18:26:18.537Z,30.60
2022-08-04T18:28:51.937Z,30.60
2022-08-04T18:31:24.225Z,30.40
2022-08-04T18:33:59.391Z,30.30
2022-08-04T18:39:17.844Z,29.80
2022-08-04T18:42:06.031Z,29.80
2022-08-04T18:44:52.070Z,29.60
2022-08-04T18:47:23.477Z,29.60
2022-08-04T18:50:59.674Z,29.50
2022-08-04T18:52:46.060Z,29.40
2022-08-04T18:55:55.338Z,29.00
2022-08-04T18:58:12.800Z,29.10
2022-08-04T19:00:46.137Z,28.80
2022-08-04T19:03:23.060Z,28.70
2022-08-04T19:05:52.263Z,28.70
2022-08-04T19:08:32.860Z,28.60
2022-08-04T19:11:38.689Z,28.70
2022-08-04T19:13:58.358Z,28.80
2022-08-04T19:16:27.731Z,28.80
2022-08-04T19:19:00.359Z,28.80
2022-08-04T19:21:59.957Z,29.10
2022-08-04T19:24:31.896Z,29.20
2022-08-04T19:27:07.293Z,29.20
2022-08-04T19:29:41.106Z,29.10
2022-08-04T19:32:16.117Z,28.90
2022-08-04T19:34:47.638Z,28.80
2022-08-04T19:37:58.258Z,28.90
2022-08-04T19:40:06.285Z,28.40
2022-08-04T19:42:34.641Z,28.80
2022-08-04T19:45:05.185Z,28.90
2022-08-04T19:48:22.093Z,29.10
2022-08-04T19:50:23.754Z,29.10
2022-08-04T19:52:52.904Z,29.00
2022-08-04T19:55:22.787Z,29.10
2022-08-04T19:58:08.604Z,29.00
2022-08-04T20:00:38.038Z,29.20
2022-08-04T20:03:11.346Z,29.20
2022-08-04T20:05:53.533Z,29.30
2022-08-04T20:08:24.328Z,29.30
2022-08-04T20:10:52.808Z,29.30
2022-08-04T20:13:25.245Z,29.30
2022-08-04T20:15:59.334Z,29.30
2022-08-04T20:18:35.750Z,29.20
2022-08-04T20:21:11.406Z,29.20
2022-08-04T20:23:52.411Z,29.00
2022-08-04T20:26:21.066Z,29.10
2022-08-04T20:28:52.537Z,29.20
2022-08-04T20:31:31.709Z,29.20
2022-08-04T20:33:59.982Z,29.10
2022-08-04T20:36:29.544Z,29.10
2022-08-04T20:38:59.751Z,29.10
2022-08-04T20:41:37.015Z,29.10
2022-08-04T20:44:10.812Z,29.20
2022-08-04T20:46:39.028Z,29.20
2022-08-04T20:49:07.421Z,29.20
2022-08-04T20:51:44.065Z,29.30
2022-08-04T20:54:16.465Z,29.30
2022-08-04T20:56:51.103Z,29.30
2022-08-04T20:59:19.498Z,29.20
2022-08-04T21:01:48.952Z,29.20
2022-08-04T21:04:32.573Z,29.20
2022-08-04T21:07:03.690Z,29.20
2022-08-04T21:09:37.005Z,29.20
2022-08-04T21:12:08.060Z,29.20
2022-08-04T21:14:36.388Z,29.10
2022-08-04T21:17:07.317Z,28.90
2022-08-04T21:19:37.940Z,28.90
2022-08-04T21:22:10.245Z,28.90
2022-08-04T21:24:40.884Z,28.80
2022-08-04T21:27:16.656Z,28.70
2022-08-04T21:29:46.110Z,28.80
2022-08-04T21:32:14.293Z,28.80
2022-08-04T21:34:42.277Z,28.80
2022-08-04T21:37:15.071Z,28.80
2022-08-04T21:39:50.811Z,28.80
2022-08-04T21:42:29.667Z,28.80
2022-08-04T21:45:11.446Z,28.70
2022-08-04T21:47:49.154Z,28.70
2022-08-04T21:50:19.763Z,28.60
2022-08-04T21:52:50.001Z,28.70
2022-08-04T21:55:20.770Z,28.60
2022-08-04T21:57:51.476Z,28.40
2022-08-04T22:00:21.360Z,28.20
2022-08-04T22:02:53.819Z,27.80
2022-08-04T22:05:22.399Z,27.50
2022-08-04T22:07:52.498Z,27.40
2022-08-04T22:10:32.290Z,27.20
2022-08-04T22:13:06.753Z,27.00
2022-08-04T22:16:03.956Z,26.80
2022-08-04T22:21:16.156Z,26.80
2022-08-04T22:23:53.510Z,26.70
2022-08-04T22:26:26.858Z,26.80
2022-08-04T22:28:56.157Z,26.80
2022-08-04T22:31:24.967Z,26.90
2022-08-04T22:33:56.202Z,26.80
2022-08-04T22:36:24.644Z,26.90
2022-08-04T22:39:04.434Z,27.10
2022-08-04T22:41:48.939Z,27.30
2022-08-04T22:44:25.703Z,27.30
2022-08-04T22:47:02.772Z,27.40
2022-08-04T22:49:32.708Z,27.40
2022-08-04T22:52:09.612Z,27.40
2022-08-04T22:54:49.955Z,27.40
2022-08-04T22:57:43.119Z,27.30
2022-08-04T23:00:10.219Z,27.30
2022-08-04T23:02:40.531Z,27.10
2022-08-04T23:05:15.752Z,27.00
2022-08-04T23:07:49.000Z,27.00
2022-08-04T23:10:18.918Z,27.00
2022-08-04T23:12:54.562Z,26.80
2022-08-04T23:15:22.455Z,26.90
2022-08-04T23:17:50.859Z,27.10
2022-08-04T23:20:23.253Z,27.20
2022-08-04T23:23:00.512Z,27.40
2022-08-04T23:26:04.748Z,27.50
2022-08-04T23:28:37.501Z,27.70
2022-08-04T23:31:10.164Z,27.70
2022-08-04T23:33:49.434Z,27.70
2022-08-04T23:36:29.397Z,27.80
2022-08-04T23:39:00.529Z,27.80
2022-08-04T23:41:53.432Z,27.80
2022-08-04T23:44:24.401Z,27.70
2022-08-04T23:46:59.421Z,27.70
2022-08-04T23:49:43.423Z,27.40
2022-08-04T23:52:27.682Z,27.50
2022-08-04T23:54:59.091Z,27.60
2022-08-04T23:58:02.393Z,27.70
